< < Back
Terminal Aerodrome Forecast


Current Version              Previous Versions:   1  2  3  4  5  6  7  8  9  

Terminal Aerodrome Forecast

996
FTUS44 KOHX 270800 AAA
TAFBNA
TAF AMD
KBNA 270809Z 2708/2806 18005KT P6SM BKN011 BKN030 BKN250
     FM271400 20005KT P6SM OVC020
     FM271600 22008KT P6SM SCT050 BKN250=

Latest METAR

439
SAUS70 KWBC 271200 RRD
MTRBNA
METAR KBNA 271153Z 17006KT 10SM FEW016 SCT021 OVC200 21/20 A3016 RMK AO2
SLP206 70063 T02110200 10211 20194 53009


USA.gov is the U.S. government's official web portal to all federal, state and local government web resources and services.